Airfield :
LOGIN :

Register | Disclaimer

   EN    FR    IT 

 










Legend :    VFR   Marginal VFR   IFR   Intensive IFR   Very Intensive IFR
Visi :
Ceiling :
>= 8 km
>= 3000ft
5 to 8 km
1000 to 3000 ft
1500m to 5 km
500 to 1000 ft
800 to 1500m
200 to 500 ft
< 800m
< 200 ft
Symbols :   Thunderstorms  Fog  Heavy snow  Heavy precipitations  Wind > 20 kt
SIGMETs :     Misc.  Thunderstorms  Icing  Turbulence  Mountain Waves  Volcanic Ashes






- Airport Elevation : 935 ft


EBFS - Florennes

CURRENT METAR :
  • 230036Z AUTO 19015KT 9999 FEW012/// SCT020/// BKN080/// 09/07 Q1024 WHT

EXPIRED METARs :
  • 222355Z AUTO 19016KT 9999 -DZ FEW014/// SCT080/// BKN100/// 09/07 Q1025 BLU
  • 222343Z AUTO 20017KT 9999 -RA FEW016/// BKN095/// OVC110/// 09/07 Q1025 BLU
  • 222325Z AUTO 20018KT 7000 -RA FEW013/// SCT065/// BKN100/// 09/07 Q1025 WHT
  • 222255Z AUTO 20017KT 9999 -RA FEW011/// SCT018/// BKN028/// 09/07 Q1024 WHT
  • 222225Z AUTO 20017KT 9999 -RA FEW014/// SCT018/// BKN036/// 09/07 Q1025 WHT
  • 222155Z AUTO 20018KT 9999 -DZ FEW013/// SCT019/// BKN055/// 09/07 Q1024 WHT

Expired Forecast.



MET'MAP, your aeronautical weather chart ! - Copyright ORBIFLY December 2007 - Disclaimer

ORBIFLY MET'MAP TEAM :

Programming & Development : Alexandra Zaïnal
Concept & original design : Baudouin d'Aumeries
Assistance for programming : Marc-Olivier Méhu
Technical & hardware support : Manuel Goepfert

Contact : metmap@orbifly.com




SOURCES & CREDITS :

   NOAA